Time;durP1;ratioP1;P1;durP2;ratioP2;P2;SDS_P1;SDS_P2;PMS_P1;PMS_P2;Temp;Humidity;BMP_temperature;BMP_pressure;BME280_temperature;BME280_humidity;BME280_pressure;Samples;Min_cycle;Max_cycle;Signal;HPM_P1;HPM_P2
2024/02/07 00:02:08;;;;;;;10.90;5.40;;;;;;;7.04;85.58;98039.46;78101;1300;3026324;-63
2024/02/07 00:04:35;;;;;;;8.70;5.10;;;;;;;7.16;84.01;98039.73;79334;1301;3012886;-64
2024/02/07 00:07:01;;;;;;;12.10;5.50;;;;;;;7.17;83.35;98029.51;79367;1301;3013812;-64
2024/02/07 00:09:29;;;;;;;12.70;6.20;;;;;;;6.86;83.90;98036.90;78187;1301;3027051;-63
2024/02/07 00:11:56;;;;;;;11.50;6.10;;;;;;;6.48;85.01;98035.05;79422;1295;3012443;-65
2024/02/07 00:14:23;;;;;;;10.20;6.20;;;;;;;6.36;85.34;98038.63;79209;1296;3011703;-64
2024/02/07 00:16:51;;;;;;;12.20;5.60;;;;;;;6.13;86.09;98036.83;78233;1300;3026077;-64
2024/02/07 00:19:17;;;;;;;17.50;5.60;;;;;;;6.16;87.22;98042.24;79309;1295;3013782;-65
2024/02/07 00:21:44;;;;;;;11.40;5.30;;;;;;;6.69;85.32;98041.66;79263;1298;3011672;-64
2024/02/07 00:24:12;;;;;;;10.00;5.10;;;;;;;6.66;84.96;98046.95;78079;1301;3026308;-64
2024/02/07 00:26:39;;;;;;;9.30;6.20;;;;;;;6.59;84.49;98044.77;79241;1295;3013722;-63
2024/02/07 00:29:06;;;;;;;11.10;6.70;;;;;;;6.24;85.27;98038.89;79279;1295;3011866;-63
2024/02/07 00:31:34;;;;;;;9.50;6.10;;;;;;;5.94;86.69;98039.79;78081;1300;3051046;-65
2024/02/07 00:34:00;;;;;;;15.10;7.20;;;;;;;5.71;87.60;98033.06;79241;1301;3013122;-64
2024/02/07 00:36:27;;;;;;;12.80;6.00;;;;;;;5.76;87.42;98035.16;79350;1298;3011620;-61
2024/02/07 00:38:55;;;;;;;13.60;7.70;;;;;;;6.07;87.77;98030.24;78043;1301;3028954;-61
2024/02/07 00:41:22;;;;;;;12.90;7.30;;;;;;;6.59;85.62;98029.50;79753;1296;3013504;-63
2024/02/07 00:43:49;;;;;;;15.70;6.80;;;;;;;6.65;84.53;98018.64;79285;1295;3013547;-63
2024/02/07 00:46:17;;;;;;;15.80;7.80;;;;;;;6.40;84.44;98017.35;78069;1298;3026119;-61
2024/02/07 00:48:44;;;;;;;13.80;7.00;;;;;;;6.17;85.03;98015.76;79215;1296;3013314;-63
2024/02/07 00:51:11;;;;;;;15.00;7.30;;;;;;;5.91;85.71;98010.27;79259;1301;3014170;-63
2024/02/07 00:53:39;;;;;;;19.10;8.50;;;;;;;5.79;86.07;98005.31;78051;1301;3027066;-64
2024/02/07 00:56:06;;;;;;;11.40;4.90;;;;;;;5.48;87.61;98005.36;79548;1295;3019306;-64
2024/02/07 00:58:34;;;;;;;10.60;4.80;;;;;;;6.01;86.89;98004.56;79438;1296;3011412;-67
2024/02/07 01:01:03;;;;;;;9.00;4.80;;;;;;;6.69;84.59;98002.36;78139;1301;3052834;-65
2024/02/07 01:03:30;;;;;;;7.50;4.90;;;;;;;6.41;83.69;98004.04;79408;1296;3013022;-65
2024/02/07 01:05:57;;;;;;;11.70;4.70;;;;;;;6.51;83.69;98005.18;79408;1295;3013000;-63
2024/02/07 01:08:25;;;;;;;8.30;4.60;;;;;;;6.26;83.42;98005.59;78071;1301;3055856;-63
2024/02/07 01:10:51;;;;;;;9.00;5.20;;;;;;;6.04;84.04;98001.05;79250;1296;3013720;-61
2024/02/07 01:13:18;;;;;;;12.70;5.30;;;;;;;5.67;85.59;97995.42;79171;1295;3011943;-65
2024/02/07 01:15:46;;;;;;;10.60;4.80;;;;;;;5.52;86.93;97991.55;78119;1301;3025459;-63
2024/02/07 01:18:13;;;;;;;8.20;5.00;;;;;;;5.97;86.06;97994.60;79351;1311;3018911;-62
2024/02/07 01:20:41;;;;;;;8.60;4.50;;;;;;;6.23;84.97;97996.75;79317;1301;3013188;-64
2024/02/07 01:23:09;;;;;;;12.00;5.10;;;;;;;6.17;84.31;97997.96;78114;1301;3056204;-63
2024/02/07 01:25:35;;;;;;;10.60;4.00;;;;;;;5.98;84.55;97995.71;79254;1296;3013321;-63
2024/02/07 01:28:03;;;;;;;9.40;5.00;;;;;;;5.78;84.82;97990.05;79430;1295;3013766;-63
2024/02/07 01:30:31;;;;;;;10.90;5.40;;;;;;;5.45;86.15;97989.69;78132;1300;3052775;-64
2024/02/07 01:32:58;;;;;;;6.50;4.40;;;;;;;5.33;86.75;97989.45;79290;1301;3013126;-65
2024/02/07 01:35:26;;;;;;;7.60;4.10;;;;;;;5.34;88.16;97980.99;79476;1300;3011916;-65
2024/02/07 01:37:54;;;;;;;19.10;4.90;;;;;;;5.86;86.09;97978.27;78161;1296;3059520;-65
2024/02/07 01:40:23;;;;;;;7.30;4.20;;;;;;;5.94;85.19;97970.93;79325;1298;3013580;-66
2024/02/07 01:42:50;;;;;;;7.70;4.50;;;;;;;5.68;85.80;97967.41;79395;1301;3013732;-65
2024/02/07 01:45:23;;;;;;;11.90;6.30;;;;;;;5.41;86.56;97967.77;78263;1302;3052522;-64
2024/02/07 01:47:51;;;;;;;8.20;4.80;;;;;;;5.07;88.20;97972.79;79399;1301;3013125;-64
2024/02/07 01:50:19;;;;;;;13.10;6.80;;;;;;;4.88;89.20;97974.84;78120;1301;3068544;-65
2024/02/07 01:52:46;;;;;;;11.10;6.00;;;;;;;4.80;90.05;97977.91;79326;1296;3014164;-63
2024/02/07 01:55:13;;;;;;;14.10;5.80;;;;;;;5.39;88.58;97972.73;79233;1296;3013447;-64
2024/02/07 01:57:41;;;;;;;9.40;4.60;;;;;;;5.54;87.17;97980.77;78108;1300;3053518;-63
2024/02/07 02:00:08;;;;;;;7.30;4.60;;;;;;;5.59;86.31;97981.34;79277;1311;3018463;-63
2024/02/07 02:02:40;;;;;;;8.10;5.40;;;;;;;5.51;86.23;97987.92;78125;1301;3053105;-61
2024/02/07 02:05:06;;;;;;;12.50;7.00;;;;;;;5.15;87.28;97987.27;79197;1301;3013359;-64
2024/02/07 02:07:33;;;;;;;13.80;5.90;;;;;;;4.96;88.35;97978.66;79541;1302;3013544;-63
2024/02/07 02:10:04;;;;;;;11.90;6.40;;;;;;;4.94;88.52;97981.92;78049;1300;3026460;-62
2024/02/07 02:12:30;;;;;;;13.70;6.10;;;;;;;5.28;88.08;97974.13;79334;1301;3011946;-63
2024/02/07 02:14:59;;;;;;;10.00;4.90;;;;;;;5.66;86.00;97969.48;78638;1301;3011692;-61
2024/02/07 02:17:26;;;;;;;10.60;5.40;;;;;;;5.38;86.18;97973.33;79353;1300;3013138;-63
2024/02/07 02:19:53;;;;;;;10.00;5.90;;;;;;;5.27;86.43;97968.11;79363;1295;3011778;-62
2024/02/07 02:22:47;;;;;;;12.50;6.60;;;;;;;5.16;86.28;97972.47;77982;1298;3027841;-62
2024/02/07 02:25:24;;;;;;;12.00;5.60;;;;;;;4.95;86.83;97964.52;78000;1301;3056972;-63
2024/02/07 02:27:59;;;;;;;9.90;4.80;;;;;;;4.79;87.20;97969.30;77960;1301;3050114;-62
2024/02/07 02:30:34;;;;;;;8.50;4.40;;;;;;;4.88;88.02;97972.71;78975;1302;3011622;-61
2024/02/07 02:33:08;;;;;;;5.70;4.10;;;;;;;5.44;85.91;97964.93;79192;1295;3011544;-61
2024/02/07 02:35:37;;;;;;;8.80;4.70;;;;;;;5.49;84.86;97972.61;78058;1296;3050746;-64
2024/02/07 02:38:04;;;;;;;8.30;4.60;;;;;;;5.45;84.48;97979.10;79459;1301;3011399;-63
2024/02/07 02:40:32;;;;;;;12.80;5.40;;;;;;;5.08;84.97;97975.37;79362;1297;3011771;-63
2024/02/07 02:42:59;;;;;;;11.50;5.40;;;;;;;4.76;86.21;97984.08;78120;1300;3051315;-63
2024/02/07 02:45:26;;;;;;;11.80;5.50;;;;;;;4.57;87.15;97982.77;79213;1301;3013512;-63
2024/02/07 02:47:54;;;;;;;21.40;6.90;;;;;;;4.42;87.61;97986.92;79330;1299;3011620;-63
2024/02/07 02:50:25;;;;;;;13.50;6.20;;;;;;;4.22;89.06;97988.48;78052;1301;3048930;-61
2024/02/07 02:52:52;;;;;;;10.80;5.40;;;;;;;4.71;88.38;97983.11;79297;1301;3011471;-60
2024/02/07 02:55:20;;;;;;;11.50;5.60;;;;;;;5.16;86.30;97981.44;78221;1300;3027117;-62
2024/02/07 02:57:48;;;;;;;10.90;5.10;;;;;;;5.10;84.85;97981.83;79198;1301;3013381;-64
2024/02/07 03:00:20;;;;;;;9.80;4.80;;;;;;;5.00;84.61;97982.27;79275;1296;3013263;-61
2024/02/07 03:02:48;;;;;;;10.50;4.40;;;;;;;4.67;85.85;97982.15;78228;1301;3050297;-61
2024/02/07 03:10:38;;;;;;;10.80;4.90;;;;;;;3.85;88.78;97973.95;78054;1301;3052531;-61
2024/02/07 03:13:05;;;;;;;14.10;5.90;;;;;;;4.50;87.46;97970.36;79328;1301;3018583;-64
2024/02/07 03:15:32;;;;;;;17.30;6.60;;;;;;;4.50;86.44;97966.52;79620;1299;3011641;-64
2024/02/07 03:18:00;;;;;;;27.20;8.30;;;;;;;5.08;83.81;97956.74;78240;1295;3026684;-64
2024/02/07 03:20:28;;;;;;;25.10;8.80;;;;;;;4.74;83.98;97954.02;79542;1296;3013697;-64
2024/02/07 03:22:55;;;;;;;22.20;6.50;;;;;;;4.50;84.57;97953.21;79315;1295;3011866;-63
2024/02/07 03:25:23;;;;;;;22.70;6.70;;;;;;;4.01;86.62;97952.93;77966;1301;3051880;-64
2024/02/07 03:27:49;;;;;;;14.80;5.70;;;;;;;3.79;87.73;97955.95;79382;1301;3012846;-66
2024/02/07 03:30:17;;;;;;;16.60;5.80;;;;;;;3.85;87.74;97956.10;79356;1301;3011397;-63
2024/02/07 03:32:45;;;;;;;15.40;5.20;;;;;;;4.44;86.94;97948.31;78165;1300;3050111;-64
2024/02/07 03:35:11;;;;;;;11.40;4.60;;;;;;;5.22;83.30;97956.42;79435;1296;3013615;-63
2024/02/07 03:37:39;;;;;;;18.10;5.30;;;;;;;4.97;82.52;97950.71;79396;1301;3011372;-63
2024/02/07 03:40:14;;;;;;;12.40;5.60;;;;;;;4.61;83.18;97949.73;78111;1307;3052356;-63
2024/02/07 03:42:42;;;;;;;14.20;5.50;;;;;;;4.23;84.68;97942.98;78275;1295;3070614;-65
2024/02/07 03:45:15;;;;;;;16.30;6.20;;;;;;;4.18;84.70;97944.48;79473;1301;3013065;-64
2024/02/07 03:47:43;;;;;;;13.30;4.50;;;;;;;3.91;86.03;97954.55;78272;1302;3048458;-66
2024/02/07 03:50:10;;;;;;;11.90;4.30;;;;;;;3.89;85.69;97941.64;79508;1295;3013174;-64
2024/02/07 03:52:44;;;;;;;10.00;4.10;;;;;;;4.00;86.08;97937.39;79354;1302;3011659;-63
2024/02/07 03:55:12;;;;;;;11.80;4.50;;;;;;;4.64;84.15;97935.20;78229;1298;3052099;-64
2024/02/07 03:57:42;;;;;;;13.20;5.00;;;;;;;4.60;83.28;97942.73;79432;1300;3018993;-64
2024/02/07 04:00:15;;;;;;;13.90;5.80;;;;;;;4.35;83.65;97940.56;78970;1295;3013039;-64
2024/02/07 04:02:47;;;;;;;14.20;5.70;;;;;;;4.23;84.04;97942.62;79429;1296;3012767;-63
2024/02/07 04:05:18;;;;;;;9.60;6.30;;;;;;;4.00;85.03;97937.20;78340;1295;3050724;-63
2024/02/07 04:07:45;;;;;;;10.50;5.80;;;;;;;4.00;84.64;97941.20;79464;1296;3013681;-63
2024/02/07 04:10:14;;;;;;;11.10;5.80;;;;;;;3.72;85.97;97937.42;78901;1299;3013354;-63
2024/02/07 05:16:31;;;;;;;8.70;5.10;;;;;;;3.35;86.20;97908.86;78180;1301;3053376;-64
2024/02/07 05:18:58;;;;;;;13.00;6.00;;;;;;;3.17;87.04;97912.08;79438;1301;3013113;-63
2024/02/07 05:21:25;;;;;;;20.20;7.00;;;;;;;3.20;87.32;97913.37;79329;1295;3011970;-63
2024/02/07 05:23:53;;;;;;;14.00;6.10;;;;;;;3.21;86.89;97917.23;78117;1300;3056050;-64
2024/02/07 05:26:20;;;;;;;9.50;4.90;;;;;;;3.77;86.50;97910.98;79513;1295;3013183;-63
2024/02/07 05:28:48;;;;;;;10.90;5.90;;;;;;;4.32;83.73;97917.65;79558;1295;3011632;-64
2024/02/07 05:31:16;;;;;;;12.50;6.20;;;;;;;4.16;82.68;97906.27;78446;1301;3052651;-63
2024/02/07 05:33:43;;;;;;;12.00;5.30;;;;;;;3.89;83.59;97908.21;79354;1298;3013226;-64
2024/02/07 05:36:10;;;;;;;13.20;5.70;;;;;;;4.06;82.68;97907.41;79543;1295;3011431;-67
2024/02/07 05:38:39;;;;;;;12.50;4.70;;;;;;;3.83;83.21;97908.73;78234;1301;3026234;-64
2024/02/07 05:41:06;;;;;;;13.70;6.50;;;;;;;3.56;84.31;97907.71;79425;1295;3013590;-63
2024/02/07 05:43:33;;;;;;;13.40;6.80;;;;;;;3.43;85.11;97905.13;79359;1295;3011879;-64
2024/02/07 05:46:00;;;;;;;9.60;5.70;;;;;;;3.35;85.56;97912.15;78139;1301;3051399;-63
2024/02/07 05:48:29;;;;;;;14.40;6.30;;;;;;;3.35;86.21;97912.16;79525;1300;3011677;-63
2024/02/07 05:50:56;;;;;;;17.80;6.30;;;;;;;3.74;85.13;97908.39;79387;1296;3011754;-65
2024/02/07 05:53:24;;;;;;;13.30;5.70;;;;;;;4.33;83.36;97906.16;78219;1298;3057362;-64
2024/02/07 05:55:50;;;;;;;12.40;6.10;;;;;;;4.58;81.49;97908.28;79526;1295;3013735;-64
2024/02/07 05:58:17;;;;;;;13.30;5.90;;;;;;;4.38;81.23;97913.01;79630;1295;3013201;-64
2024/02/07 06:00:45;;;;;;;10.80;5.80;;;;;;;4.24;81.29;97914.54;78366;1301;3026175;-63
2024/02/07 06:03:12;;;;;;;9.50;5.10;;;;;;;4.08;81.93;97906.45;79519;1295;3013628;-64
2024/02/07 06:05:39;;;;;;;10.90;5.50;;;;;;;3.84;82.90;97906.77;79592;1295;3013734;-63
2024/02/07 06:08:08;;;;;;;9.20;5.20;;;;;;;3.72;83.38;97907.33;78259;1301;3028620;-65
2024/02/07 06:10:37;;;;;;;16.10;5.90;;;;;;;3.58;84.32;97898.75;79439;1300;3014062;-66
2024/02/07 06:13:06;;;;;;;8.30;4.10;;;;;;;3.60;84.85;97902.94;78305;1299;3050423;-66
2024/02/07 06:15:33;;;;;;;11.00;4.50;;;;;;;4.09;83.80;97899.13;79711;1301;3013227;-65
2024/02/07 06:18:00;;;;;;;11.90;5.70;;;;;;;4.40;82.02;97903.14;79379;1300;3012025;-65
2024/02/07 06:20:28;;;;;;;8.80;4.50;;;;;;;4.42;81.61;97913.63;78386;1295;3026856;-64
2024/02/07 06:22:55;;;;;;;14.70;6.70;;;;;;;4.32;81.20;97907.45;79472;1295;3014093;-64
2024/02/07 06:25:21;;;;;;;15.60;5.70;;;;;;;4.20;81.84;97916.66;79513;1301;3011691;-65
2024/02/07 06:27:49;;;;;;;16.80;5.90;;;;;;;4.08;81.88;97917.48;78391;1295;3049542;-64
2024/02/07 06:30:16;;;;;;;13.90;6.40;;;;;;;3.92;83.14;97926.09;79500;1298;3013093;-64
2024/02/07 06:32:43;;;;;;;12.30;6.80;;;;;;;3.78;83.80;97921.67;79608;1298;3011832;-64
2024/02/07 06:35:11;;;;;;;10.50;5.60;;;;;;;3.88;83.33;97923.89;78268;1297;3027667;-65
2024/02/07 06:37:39;;;;;;;7.70;4.10;;;;;;;3.72;84.20;97915.62;79458;1298;3013263;-64
2024/02/07 06:40:06;;;;;;;9.00;4.40;;;;;;;4.27;83.82;97925.36;79452;1296;3011536;-65
2024/02/07 06:42:34;;;;;;;9.70;5.40;;;;;;;5.06;80.01;97924.61;78428;1298;3050130;-64
2024/02/07 06:45:01;;;;;;;8.90;5.20;;;;;;;4.66;80.75;97924.15;79562;1301;3013215;-64
2024/02/07 06:47:27;;;;;;;11.20;5.00;;;;;;;4.75;80.32;97916.27;79604;1298;3011526;-64
2024/02/07 06:49:58;;;;;;;11.40;6.00;;;;;;;4.85;79.69;97914.11;78227;1295;3028896;-66
2024/02/07 06:52:25;;;;;;;11.00;5.40;;;;;;;4.60;80.39;97921.03;79455;1295;3011648;-63
2024/02/07 06:54:53;;;;;;;12.70;6.00;;;;;;;4.55;80.84;97914.41;79016;1295;3011631;-63
2024/02/07 06:57:20;;;;;;;17.30;7.70;;;;;;;4.46;81.14;97915.42;79452;1295;3013672;-64
2024/02/07 06:59:47;;;;;;;14.30;7.10;;;;;;;4.29;82.05;97921.80;79431;1300;3011772;-64
2024/02/07 07:02:15;;;;;;;13.20;5.50;;;;;;;4.17;83.14;97914.03;78461;1301;3028429;-64
2024/02/07 07:04:42;;;;;;;7.80;4.50;;;;;;;4.33;82.59;97925.79;79422;1296;3018724;-66
2024/02/07 07:07:08;;;;;;;10.20;4.60;;;;;;;4.98;80.87;97929.23;79537;1295;3011429;-64
2024/02/07 07:09:37;;;;;;;10.20;5.40;;;;;;;5.35;79.63;97911.50;78570;1295;3025950;-65
2024/02/07 07:12:04;;;;;;;13.40;6.00;;;;;;;5.46;78.35;97917.78;79592;1299;3012816;-65
2024/02/07 07:14:30;;;;;;;9.70;4.90;;;;;;;5.45;77.80;97921.13;79523;1299;3011958;-65
2024/02/07 07:16:58;;;;;;;11.80;4.50;;;;;;;5.19;78.24;97918.06;78233;1295;3052674;-63
2024/02/07 07:19:25;;;;;;;11.40;5.70;;;;;;;4.99;79.05;97910.67;79570;1301;3012830;-63
2024/02/07 07:21:52;;;;;;;13.70;6.20;;;;;;;4.74;80.40;97909.92;79492;1298;3011775;-63
2024/02/07 07:24:20;;;;;;;12.90;5.60;;;;;;;4.81;80.50;97906.72;78308;1298;3028486;-63
2024/02/07 07:26:46;;;;;;;14.40;6.80;;;;;;;4.80;80.86;97899.52;79660;1298;3013652;-64
2024/02/07 07:29:13;;;;;;;13.00;6.40;;;;;;;4.84;81.18;97901.67;79553;1300;3011737;-63
2024/02/07 07:31:41;;;;;;;10.70;5.20;;;;;;;5.31;80.57;97914.86;78457;1300;3026207;-63
2024/02/07 07:34:07;;;;;;;12.60;5.60;;;;;;;5.72;78.57;97907.20;79553;1301;3012878;-64
2024/02/07 07:36:34;;;;;;;22.40;8.00;;;;;;;6.05;77.49;97899.16;79352;1298;3011811;-65
2024/02/07 07:39:02;;;;;;;24.00;9.90;;;;;;;5.99;76.92;97900.25;78202;1301;3028873;-65
2024/02/07 07:41:29;;;;;;;22.10;8.20;;;;;;;5.71;77.62;97925.20;79605;1300;3019086;-64
2024/02/07 07:43:57;;;;;;;22.30;9.20;;;;;;;5.55;78.96;97897.75;79646;1301;3011811;-65
2024/02/07 07:49:00;;;;;;;18.20;7.50;;;;;;;5.56;78.95;97890.54;79993;1304;3014048;-65
2024/02/07 07:51:27;;;;;;;17.10;8.30;;;;;;;5.57;79.45;97892.94;79139;1301;3014606;-65
2024/02/07 07:53:54;;;;;;;15.90;7.90;;;;;;;5.74;78.76;97878.80;79235;1301;3011636;-66
2024/02/07 07:56:23;;;;;;;14.30;5.20;;;;;;;5.67;78.80;97879.41;77876;1303;3051818;-63
2024/02/07 07:58:50;;;;;;;12.60;5.60;;;;;;;5.72;78.86;97899.39;79243;1299;3014838;-65
2024/02/07 08:01:19;;;;;;;15.20;5.50;;;;;;;5.73;79.31;97863.74;78691;1303;3011556;-65
2024/02/07 08:03:47;;;;;;;8.00;4.40;;;;;;;6.51;77.29;97878.84;78026;1298;3049816;-65
2024/02/07 08:06:15;;;;;;;10.10;4.00;;;;;;;7.08;74.31;97875.70;79497;1298;3012994;-63
2024/02/07 08:08:41;;;;;;;10.00;5.00;;;;;;;6.60;75.25;97863.64;79413;1302;3011938;-64
2024/02/07 08:11:09;;;;;;;9.10;4.50;;;;;;;6.76;75.17;97888.48;78183;1301;3027918;-62
2024/02/07 08:13:36;;;;;;;9.50;5.20;;;;;;;6.66;74.69;97887.38;79528;1303;3012614;-65
2024/02/07 08:16:03;;;;;;;14.80;6.80;;;;;;;6.51;75.80;97871.52;79216;1301;3013107;-64
2024/02/07 08:18:59;;;;;;;10.40;6.10;;;;;;;6.36;76.44;97874.67;77966;1302;3026413;-64
2024/02/07 08:21:27;;;;;;;16.40;7.90;;;;;;;6.45;76.48;97874.75;77978;1301;3052866;-64
2024/02/07 08:23:54;;;;;;;12.70;7.30;;;;;;;6.49;76.71;97871.13;79142;1301;3021346;-64
2024/02/07 08:26:21;;;;;;;10.80;6.60;;;;;;;6.45;76.73;97870.91;79169;1303;3011964;-63
2024/02/07 08:28:50;;;;;;;13.80;6.50;;;;;;;6.37;77.45;97876.66;77993;1302;3029619;-65
2024/02/07 08:31:17;;;;;;;10.80;5.90;;;;;;;6.57;76.90;97875.80;79514;1298;3015874;-67
2024/02/07 08:33:43;;;;;;;12.80;5.50;;;;;;;6.37;77.84;97875.84;79188;1298;3012936;-63
2024/02/07 08:36:12;;;;;;;18.10;6.10;;;;;;;6.35;78.24;97868.98;78242;1301;3053541;-64
2024/02/07 08:38:41;;;;;;;14.50;6.20;;;;;;;6.44;78.27;97863.36;79417;1298;3013334;-64
2024/02/07 08:41:08;;;;;;;12.90;4.90;;;;;;;6.46;78.19;97866.98;79347;1301;3011579;-64
2024/02/07 08:43:37;;;;;;;7.00;3.50;;;;;;;6.52;78.15;97871.82;78004;1298;3068094;-66
2024/02/07 08:46:04;;;;;;;10.10;4.00;;;;;;;6.58;78.53;97852.80;79432;1299;3013758;-65
2024/02/07 08:48:31;;;;;;;14.00;4.40;;;;;;;7.25;76.59;97850.98;79360;1297;3011701;-64
2024/02/07 08:50:59;;;;;;;10.00;3.70;;;;;;;7.39;75.47;97858.52;78490;1299;3052423;-64
2024/02/07 08:53:26;;;;;;;11.90;5.00;;;;;;;7.49;75.54;97849.92;79344;1300;3013529;-63
2024/02/07 08:55:55;;;;;;;10.50;4.50;;;;;;;7.53;74.58;97860.15;79314;1302;3011882;-66
2024/02/07 08:58:24;;;;;;;9.30;5.00;;;;;;;7.36;75.65;97849.00;78230;1299;3069633;-63
2024/02/07 09:00:50;;;;;;;11.00;4.40;;;;;;;7.17;76.48;97854.55;79382;1297;3013782;-62
2024/02/07 09:03:17;;;;;;;11.60;4.90;;;;;;;6.93;78.02;97846.83;79382;1299;3011827;-63
2024/02/07 09:05:45;;;;;;;11.30;4.90;;;;;;;7.09;77.60;97842.43;78013;1301;3052758;-62
2024/02/07 09:08:11;;;;;;;8.10;4.00;;;;;;;7.03;78.02;97841.42;79303;1299;3018730;-64
2024/02/07 09:10:38;;;;;;;10.80;4.90;;;;;;;7.07;78.02;97833.83;79320;1301;3013063;-63
2024/02/07 09:13:06;;;;;;;8.50;4.40;;;;;;;7.13;77.45;97847.36;78068;1298;3026189;-62
2024/02/07 09:15:33;;;;;;;6.80;3.30;;;;;;;7.11;76.56;97854.64;79267;1301;3018641;-65
2024/02/07 09:17:59;;;;;;;6.20;3.10;;;;;;;7.16;75.96;97853.23;79385;1300;3013098;-65
2024/02/07 09:20:27;;;;;;;8.60;4.70;;;;;;;7.22;75.97;97823.66;78164;1299;3025734;-61
2024/02/07 09:22:54;;;;;;;10.60;4.20;;;;;;;7.20;76.12;97834.13;79441;1301;3013460;-64
2024/02/07 09:25:20;;;;;;;9.10;3.70;;;;;;;7.22;76.26;97829.41;79418;1301;3013500;-66
2024/02/07 09:27:48;;;;;;;8.60;3.80;;;;;;;7.28;76.02;97846.96;77944;1302;3028681;-64
2024/02/07 09:30:15;;;;;;;7.70;3.50;;;;;;;7.23;76.38;97836.02;79264;1299;3012815;-65
2024/02/07 09:32:41;;;;;;;7.60;3.50;;;;;;;7.33;76.37;97831.60;79459;1299;3013410;-65
2024/02/07 09:35:10;;;;;;;8.90;4.50;;;;;;;7.36;76.31;97834.57;77933;1301;3027106;-65
2024/02/07 09:37:39;;;;;;;7.50;3.20;;;;;;;7.35;76.44;97827.44;79453;1300;3013125;-67
2024/02/07 09:40:09;;;;;;;7.90;3.60;;;;;;;7.40;76.24;97822.59;79249;1302;3011604;-65
2024/02/07 09:42:37;;;;;;;7.20;3.40;;;;;;;7.55;76.12;97821.63;79343;1300;3012649;-66
2024/02/07 09:45:07;;;;;;;5.20;2.80;;;;;;;7.63;75.80;97823.81;78819;1300;3011530;-65
2024/02/07 09:47:37;;;;;;;8.30;3.70;;;;;;;7.61;75.72;97818.03;79341;1301;3012880;-68
2024/02/07 09:50:05;;;;;;;14.80;3.80;;;;;;;7.72;75.43;97809.20;77978;1298;3026669;-66
2024/02/07 09:52:31;;;;;;;8.80;3.90;;;;;;;7.70;75.22;97819.99;79420;1295;3013233;-65
2024/02/07 09:55:01;;;;;;;8.50;3.60;;;;;;;7.70;75.41;97805.89;79341;1298;3013804;-65
2024/02/07 09:57:30;;;;;;;5.20;2.40;;;;;;;7.83;74.47;97822.67;78232;1299;3051043;-64
2024/02/07 09:59:56;;;;;;;5.20;2.90;;;;;;;7.85;74.22;97801.58;79462;1301;3013296;-66
2024/02/07 10:02:23;;;;;;;6.90;3.10;;;;;;;7.83;74.17;97796.33;79590;1300;3011749;-65
2024/02/07 10:04:51;;;;;;;10.90;4.40;;;;;;;7.96;73.94;97795.75;78055;1298;3057061;-66
2024/02/07 10:07:19;;;;;;;10.30;3.70;;;;;;;7.92;74.12;97796.40;79244;1297;3013431;-65
2024/02/07 10:09:48;;;;;;;7.90;3.80;;;;;;;7.99;74.36;97777.87;79190;1295;3011839;-65
2024/02/07 10:12:18;;;;;;;11.10;4.50;;;;;;;8.10;74.43;97772.35;78101;1301;3051619;-65
2024/02/07 10:14:44;;;;;;;9.90;3.20;;;;;;;8.29;73.98;97771.05;79357;1300;3011761;-65
2024/02/07 10:17:11;;;;;;;8.60;3.50;;;;;;;8.21;74.05;97774.16;79396;1298;3011524;-65
2024/02/07 10:19:39;;;;;;;10.20;3.20;;;;;;;8.30;74.13;97761.73;78393;1300;3056625;-65
2024/02/07 10:22:20;;;;;;;8.10;3.30;;;;;;;8.35;73.77;97776.70;79392;1295;3013030;-65
2024/02/07 10:24:48;;;;;;;4.90;2.60;;;;;;;8.47;72.88;97770.16;78146;1298;3050526;-64
2024/02/07 10:27:21;;;;;;;3.30;2.20;;;;;;;8.51;72.80;97770.21;79544;1295;3019231;-66
2024/02/07 10:29:49;;;;;;;6.20;2.70;;;;;;;8.68;72.46;97775.15;78109;1295;3069073;-65
2024/02/07 10:32:17;;;;;;;6.50;3.10;;;;;;;8.70;72.39;97753.89;79493;1295;3012751;-65
2024/02/07 10:34:53;;;;;;;4.70;2.70;;;;;;;8.87;72.17;97766.46;79767;1295;3012095;-66
2024/02/07 10:37:21;;;;;;;5.40;3.30;;;;;;;8.81;72.07;97763.64;78135;1297;3053192;-64
2024/02/07 10:39:51;;;;;;;7.90;3.60;;;;;;;8.83;72.55;97765.41;79250;1298;3012887;-65
2024/02/07 10:42:20;;;;;;;8.30;3.30;;;;;;;9.04;72.15;97765.50;78764;1300;3011515;-63
2024/02/07 10:44:46;;;;;;;4.90;3.00;;;;;;;9.02;72.31;97772.13;79437;1303;3012768;-64
2024/02/07 10:47:13;;;;;;;8.80;2.80;;;;;;;9.19;71.54;97766.22;79363;1301;3011590;-63
2024/02/07 10:49:41;;;;;;;4.50;2.60;;;;;;;9.33;70.82;97775.19;78182;1297;3026662;-63
2024/02/07 10:52:11;;;;;;;7.30;3.00;;;;;;;9.30;70.19;97777.70;79140;1298;3013169;-62
2024/02/07 10:54:40;;;;;;;7.30;2.10;;;;;;;9.44;70.03;97788.58;79028;1298;3011662;-65
2024/02/07 10:57:07;;;;;;;4.50;2.10;;;;;;;9.46;70.11;97786.35;79263;1300;3018929;-63
2024/02/07 10:59:36;;;;;;;5.90;2.60;;;;;;;9.51;69.59;97791.52;79126;1301;3011797;-67
2024/02/07 11:02:04;;;;;;;6.40;2.50;;;;;;;9.60;68.80;97778.18;78183;1296;3068346;-63
2024/02/07 11:04:32;;;;;;;4.30;2.00;;;;;;;9.59;68.40;97795.29;79250;1297;3013523;-64
2024/02/07 11:06:58;;;;;;;7.10;3.00;;;;;;;9.58;68.77;97763.02;79549;1295;3011781;-67
2024/02/07 11:09:26;;;;;;;10.20;2.70;;;;;;;9.63;68.70;97796.77;78212;1298;3052272;-63
2024/02/07 11:11:53;;;;;;;6.90;2.50;;;;;;;9.65;68.90;97770.77;79480;1297;3013190;-63
2024/02/07 11:14:20;;;;;;;11.90;3.60;;;;;;;9.77;68.93;97756.50;79313;1301;3013703;-65
2024/02/07 11:16:48;;;;;;;7.30;2.30;;;;;;;9.83;68.95;97791.65;78173;1298;3026302;-65
2024/02/07 11:19:15;;;;;;;5.00;2.50;;;;;;;9.86;68.48;97765.71;79286;1297;3018575;-62
2024/02/07 11:21:42;;;;;;;6.40;2.30;;;;;;;9.89;68.18;97770.00;79634;1295;3013039;-66
2024/02/07 11:24:10;;;;;;;6.60;2.00;;;;;;;9.83;68.71;97768.41;78850;1297;3053535;-66
2024/02/07 11:26:38;;;;;;;7.60;2.80;;;;;;;9.96;67.99;97772.23;81854;1301;3012980;-64
2024/02/07 11:29:04;;;;;;;6.30;2.60;;;;;;;10.12;67.81;97757.08;81737;1298;3011366;-64
2024/02/07 11:31:32;;;;;;;8.90;2.80;;;;;;;10.29;67.52;97749.48;80615;1295;3068468;-62
2024/02/07 11:33:59;;;;;;;5.10;2.00;;;;;;;10.39;65.98;97742.64;81857;1297;3012867;-62
2024/02/07 11:36:26;;;;;;;3.50;1.50;;;;;;;10.51;65.46;97740.40;79513;1300;3011882;-64
2024/02/07 11:38:55;;;;;;;6.40;2.50;;;;;;;10.58;64.89;97741.03;78015;1295;3028992;-62
2024/02/07 11:41:21;;;;;;;6.20;2.80;;;;;;;10.57;64.60;97744.24;79577;1297;3013601;-64
2024/02/07 11:43:54;;;;;;;5.50;2.80;;;;;;;10.73;63.63;97755.43;79479;1297;3011797;-69
2024/02/07 11:46:23;;;;;;;7.40;2.50;;;;;;;10.75;63.54;97740.25;78525;1296;3069367;-65
2024/02/07 11:48:53;;;;;;;12.30;2.60;;;;;;;10.98;63.58;97727.14;79565;1297;3018585;-64
2024/02/07 11:51:24;;;;;;;3.60;1.80;;;;;;;11.11;63.24;97736.02;78375;1298;3049367;-68
2024/02/07 11:53:59;;;;;;;4.80;2.10;;;;;;;11.09;62.46;97755.27;79228;1301;3011864;-64
2024/02/07 11:56:30;;;;;;;6.60;1.80;;;;;;;11.13;61.55;97733.39;77919;1300;3050729;-67
2024/02/07 11:58:56;;;;;;;2.90;1.30;;;;;;;11.18;61.01;97752.47;79493;1296;3013307;-63
2024/02/07 12:01:25;;;;;;;5.00;1.70;;;;;;;11.28;60.58;97727.92;78739;1295;3011700;-64
2024/02/07 12:03:56;;;;;;;3.60;1.40;;;;;;;11.45;60.89;97709.05;79321;1297;3013119;-63
2024/02/07 12:06:24;;;;;;;3.70;1.50;;;;;;;11.65;60.18;97711.42;78008;1298;3056898;-65
2024/02/07 12:08:51;;;;;;;3.80;1.90;;;;;;;11.56;60.22;97728.20;79222;1296;3013500;-65
2024/02/07 12:11:18;;;;;;;3.20;1.60;;;;;;;11.45;60.56;97724.66;79308;1297;3011934;-65
2024/02/07 12:13:46;;;;;;;11.00;1.80;;;;;;;11.42;60.37;97721.07;78371;1301;3025720;-64
2024/02/07 12:16:12;;;;;;;5.00;1.70;;;;;;;11.25;60.81;97732.10;79512;1301;3018988;-65
2024/02/07 12:18:39;;;;;;;3.60;2.00;;;;;;;10.99;60.97;97723.04;79250;1300;3012849;-65
2024/02/07 12:21:08;;;;;;;4.00;2.00;;;;;;;11.00;61.23;97723.62;78337;1297;3028223;-64
2024/02/07 12:23:36;;;;;;;5.20;2.20;;;;;;;10.94;61.62;97706.87;79389;1300;3014680;-66
2024/02/07 12:26:03;;;;;;;3.70;2.00;;;;;;;10.79;62.06;97732.13;79369;1298;3011733;-63
2024/02/07 12:28:32;;;;;;;7.10;2.70;;;;;;;10.59;62.37;97714.52;78319;1298;3051852;-65
2024/02/07 12:30:59;;;;;;;11.40;1.90;;;;;;;10.55;62.89;97704.89;79341;1297;3019185;-64
2024/02/07 12:33:26;;;;;;;6.10;2.20;;;;;;;10.61;62.64;97716.26;79468;1301;3011563;-65
2024/02/07 12:35:55;;;;;;;6.30;2.40;;;;;;;10.53;63.23;97698.05;78130;1300;3028113;-65